Time;durP1;ratioP1;P1;durP2;ratioP2;P2;SDS_P1;SDS_P2;PMS_P1;PMS_P2;Temp;Humidity;BMP_temperature;BMP_pressure;BME280_temperature;BME280_humidity;BME280_pressure;Samples;Min_cycle;Max_cycle;Signal;HPM_P1;HPM_P2
2022/10/24 00:00:35;;;;;;;26.88;17.83;;;;;;;12.53;100.00;98914.59;4899585;29;20407;-53
2022/10/24 00:03:31;;;;;;;28.15;15.68;;;;;;;12.51;100.00;98908.63;4899747;29;20049;-56
2022/10/24 00:06:18;;;;;;;29.27;17.55;;;;;;;12.54;100.00;98919.75;4900292;29;20071;-52
2022/10/24 00:09:03;;;;;;;28.00;17.38;;;;;;;12.52;100.00;98911.13;4902067;29;20044;-53
2022/10/24 00:11:47;;;;;;;27.08;16.23;;;;;;;12.53;100.00;98912.78;4898402;29;20132;-52
2022/10/24 00:14:33;;;;;;;27.52;18.00;;;;;;;12.54;100.00;98917.13;4903806;29;20309;-53
2022/10/24 00:17:20;;;;;;;28.20;16.30;;;;;;;12.55;100.00;98918.78;4898284;29;20469;-53
2022/10/24 00:20:06;;;;;;;29.50;16.98;;;;;;;12.55;100.00;98910.91;4898206;29;20052;-54
2022/10/24 00:22:51;;;;;;;30.05;16.73;;;;;;;12.56;100.00;98895.97;4901168;29;20048;-53
2022/10/24 00:25:35;;;;;;;27.70;17.73;;;;;;;12.53;100.00;98893.59;4900666;29;20047;-56
2022/10/24 00:28:20;;;;;;;30.63;17.67;;;;;;;12.47;100.00;98892.25;4894006;29;20089;-52
2022/10/24 00:31:07;;;;;;;30.45;18.02;;;;;;;12.47;100.00;98884.34;4897698;29;20095;-55
2022/10/24 00:33:52;;;;;;;30.20;18.08;;;;;;;12.48;100.00;98877.31;4900274;29;20127;-54
2022/10/24 00:36:36;;;;;;;31.83;17.17;;;;;;;12.44;100.00;98876.72;4899502;29;20044;-54
2022/10/24 00:39:21;;;;;;;29.52;16.67;;;;;;;12.44;100.00;98863.56;4884099;29;20066;-56
2022/10/24 00:42:05;;;;;;;29.17;17.13;;;;;;;12.47;100.00;98859.91;4897884;29;20522;-55
2022/10/24 00:44:52;;;;;;;28.83;16.83;;;;;;;12.40;100.00;98857.69;4891536;29;20092;-50
2022/10/24 00:47:36;;;;;;;27.58;16.50;;;;;;;12.39;100.00;98868.31;4900663;29;20091;-51
2022/10/24 00:50:21;;;;;;;30.60;16.33;;;;;;;12.35;100.00;98867.75;4900679;29;20059;-52
2022/10/24 00:53:06;;;;;;;28.02;16.17;;;;;;;12.34;100.00;98859.97;4900225;29;20043;-53
2022/10/24 00:55:55;;;;;;;27.88;15.18;;;;;;;12.35;100.00;98856.38;4898532;29;20507;-53
2022/10/24 00:58:41;;;;;;;26.27;14.77;;;;;;;12.35;100.00;98851.13;4903129;29;20127;-55
2022/10/24 01:01:26;;;;;;;25.25;14.48;;;;;;;12.23;100.00;98851.09;4883969;29;20136;-50
2022/10/24 01:04:12;;;;;;;27.05;14.15;;;;;;;12.29;100.00;98844.56;4901272;29;20054;-55
2022/10/24 01:07:03;;;;;;;26.25;13.43;;;;;;;12.32;100.00;98841.69;4897628;29;20139;-51
2022/10/24 01:09:59;;;;;;;22.65;14.00;;;;;;;12.29;100.00;98827.00;4899574;29;20048;-56
2022/10/24 01:13:19;;;;;;;23.33;13.13;;;;;;;12.25;100.00;98825.56;4891502;29;20100;-53
2022/10/24 01:16:14;;;;;;;23.98;13.32;;;;;;;12.23;100.00;98830.09;4899850;29;20040;-53
2022/10/24 01:19:32;;;;;;;24.15;13.63;;;;;;;12.25;100.00;98820.31;4897065;29;20099;-52
2022/10/24 01:22:23;;;;;;;20.15;12.85;;;;;;;12.25;100.00;98828.19;4899418;29;20410;-53
2022/10/24 01:25:23;;;;;;;22.02;12.98;;;;;;;12.24;100.00;98828.31;4900309;29;20511;-52
2022/10/24 01:28:16;;;;;;;25.75;13.27;;;;;;;12.26;100.00;98818.50;4893662;29;20044;-57
2022/10/24 01:31:06;;;;;;;25.95;14.00;;;;;;;12.24;100.00;98817.78;4896077;29;20075;-52
2022/10/24 01:34:00;;;;;;;25.63;14.95;;;;;;;12.19;100.00;98799.75;4897594;29;20667;-54
2022/10/24 01:37:05;;;;;;;24.85;15.50;;;;;;;12.13;100.00;98798.41;4903128;29;20517;-49
2022/10/24 01:39:55;;;;;;;24.10;15.55;;;;;;;12.17;100.00;98799.03;4900023;29;20160;-57
2022/10/24 01:42:40;;;;;;;28.63;16.60;;;;;;;12.17;100.00;98805.13;4882692;29;20076;-53
2022/10/24 01:45:32;;;;;;;25.67;16.83;;;;;;;12.12;100.00;98804.63;4896341;29;20059;-52
2022/10/24 01:48:20;;;;;;;25.05;16.17;;;;;;;12.11;100.00;98805.56;4903309;29;20056;-53
2022/10/24 01:51:06;;;;;;;24.58;14.15;;;;;;;12.11;100.00;98810.81;4894356;29;20155;-51
2022/10/24 01:53:52;;;;;;;24.85;13.35;;;;;;;12.13;100.00;98814.16;4896744;29;20138;-52
2022/10/24 01:56:36;;;;;;;21.70;13.50;;;;;;;12.15;100.00;98809.66;4901036;29;20056;-54
2022/10/24 01:59:27;;;;;;;22.20;13.23;;;;;;;12.12;100.00;98815.13;4895907;29;20056;-50
2022/10/24 02:02:20;;;;;;;21.13;11.98;;;;;;;12.13;100.00;98815.94;4899837;29;20060;-50
2022/10/24 02:05:11;;;;;;;23.70;12.73;;;;;;;12.15;100.00;98816.69;4898557;29;20112;-50
2022/10/24 02:08:04;;;;;;;24.98;13.55;;;;;;;12.19;100.00;98826.03;4901924;29;20491;-49
2022/10/24 02:10:56;;;;;;;24.75;13.00;;;;;;;12.18;100.00;98835.69;4885951;29;20188;-55
2022/10/24 02:13:55;;;;;;;25.20;12.13;;;;;;;12.15;100.00;98832.44;4897301;29;20460;-51
2022/10/24 02:16:42;;;;;;;19.95;12.35;;;;;;;12.12;100.00;98819.53;4897546;29;20051;-53
2022/10/24 02:19:27;;;;;;;22.77;12.02;;;;;;;12.10;100.00;98811.78;4896968;29;20044;-56
2022/10/24 02:22:26;;;;;;;21.52;12.48;;;;;;;12.18;100.00;98817.28;4901346;29;20201;-50
2022/10/24 02:25:23;;;;;;;19.80;11.73;;;;;;;12.20;100.00;98825.06;4895839;29;20048;-56
2022/10/24 02:28:17;;;;;;;21.17;13.00;;;;;;;12.21;100.00;98820.66;4895782;29;20139;-53
2022/10/24 02:31:07;;;;;;;24.33;12.32;;;;;;;12.17;100.00;98826.13;4886662;29;20396;-51
2022/10/24 02:33:54;;;;;;;23.42;12.02;;;;;;;12.19;100.00;98828.66;4898071;29;20140;-55
2022/10/24 02:36:42;;;;;;;24.27;13.55;;;;;;;12.17;100.00;98825.28;4899170;29;20051;-50
2022/10/24 02:39:28;;;;;;;23.67;12.88;;;;;;;12.16;100.00;98818.34;4892874;29;20163;-50
2022/10/24 02:42:14;;;;;;;20.27;11.98;;;;;;;12.15;100.00;98821.94;4896232;29;20047;-50
2022/10/24 02:45:01;;;;;;;20.17;12.77;;;;;;;12.16;100.00;98818.34;4898955;29;20063;-53
2022/10/24 02:47:48;;;;;;;22.00;12.85;;;;;;;12.11;100.00;98826.56;4902774;29;20054;-52
2022/10/24 02:50:33;;;;;;;25.65;14.23;;;;;;;12.18;100.00;98824.31;4899458;29;20191;-49
2022/10/24 02:53:20;;;;;;;24.77;13.85;;;;;;;12.19;100.00;98839.97;4899672;29;20515;-55
2022/10/24 02:56:05;;;;;;;24.83;13.73;;;;;;;12.21;100.00;98865.31;4900753;29;20139;-54
2022/10/24 02:58:50;;;;;;;25.90;14.95;;;;;;;12.19;100.00;98895.13;4902531;29;20539;-54
2022/10/24 03:01:34;;;;;;;25.33;14.85;;;;;;;12.18;100.00;98940.72;4898235;29;20047;-52
2022/10/24 03:04:19;;;;;;;27.20;14.68;;;;;;;12.17;100.00;98983.72;4897474;29;20136;-56
2022/10/24 03:07:03;;;;;;;25.55;15.27;;;;;;;12.20;100.00;98974.75;4902280;29;20546;-53
2022/10/24 03:09:48;;;;;;;25.50;14.13;;;;;;;12.25;100.00;98964.78;4898302;29;20088;-53
2022/10/24 03:12:33;;;;;;;28.15;15.52;;;;;;;12.29;100.00;98970.66;4900284;29;20048;-53
2022/10/24 03:15:18;;;;;;;26.55;14.85;;;;;;;12.33;100.00;98987.84;4901990;29;20040;-48
2022/10/24 03:18:03;;;;;;;29.95;16.35;;;;;;;12.26;100.00;98970.84;4900917;29;20071;-50
2022/10/24 03:20:47;;;;;;;29.13;17.48;;;;;;;12.30;100.00;98967.06;4906040;29;20099;-52
2022/10/24 03:23:32;;;;;;;30.75;18.42;;;;;;;12.38;100.00;98974.38;4896304;29;20413;-50
2022/10/24 03:26:16;;;;;;;32.28;18.98;;;;;;;12.39;100.00;98987.41;4893043;29;20128;-53
2022/10/24 03:29:01;;;;;;;30.65;19.15;;;;;;;12.39;100.00;99003.16;4887572;29;20125;-54
2022/10/24 03:31:46;;;;;;;30.98;18.48;;;;;;;12.35;100.00;99009.59;4899311;29;20041;-53
2022/10/24 03:34:30;;;;;;;30.70;16.88;;;;;;;12.31;100.00;99018.63;4900972;29;20062;-56
2022/10/24 03:37:15;;;;;;;27.88;15.65;;;;;;;12.35;100.00;99001.72;4899971;29;20059;-52
2022/10/24 03:40:00;;;;;;;24.58;15.27;;;;;;;12.37;100.00;98988.47;4897767;29;20732;-55
2022/10/24 03:42:45;;;;;;;24.23;14.10;;;;;;;12.21;100.00;98929.16;4905229;29;20413;-53
2022/10/24 03:45:30;;;;;;;21.60;12.98;;;;;;;12.00;100.00;98905.25;4903028;29;20041;-50
2022/10/24 03:48:15;;;;;;;20.98;13.20;;;;;;;11.89;100.00;98885.03;4902015;29;20563;-54
2022/10/24 03:51:01;;;;;;;20.00;12.45;;;;;;;11.86;100.00;98880.00;4897402;29;20044;-52
2022/10/24 03:53:45;;;;;;;20.27;11.07;;;;;;;11.91;100.00;98870.84;4888371;29;20056;-54
2022/10/24 03:56:30;;;;;;;23.85;12.20;;;;;;;11.94;100.00;98878.53;4886279;29;20057;-57
2022/10/24 03:59:15;;;;;;;18.02;11.48;;;;;;;12.00;100.00;98897.38;4902973;29;20053;-55
2022/10/24 04:02:00;;;;;;;18.70;10.85;;;;;;;12.07;100.00;98927.50;4901068;29;20104;-58
2022/10/24 04:04:44;;;;;;;20.30;12.48;;;;;;;12.08;100.00;98952.84;4900726;29;20496;-54
2022/10/24 04:07:29;;;;;;;21.63;11.70;;;;;;;12.05;100.00;98974.03;4902228;29;20168;-53
2022/10/24 04:10:13;;;;;;;16.92;10.85;;;;;;;12.06;100.00;98978.34;4901956;29;20053;-55
2022/10/24 04:12:58;;;;;;;20.52;10.98;;;;;;;12.07;100.00;98987.91;4898329;29;20396;-53
2022/10/24 04:15:42;;;;;;;18.48;11.05;;;;;;;12.16;100.00;98991.66;4902493;29;20044;-54
2022/10/24 04:18:27;;;;;;;19.65;10.65;;;;;;;12.15;100.00;98985.59;4900180;29;20139;-54
2022/10/24 04:21:12;;;;;;;20.75;13.07;;;;;;;12.24;100.00;98991.16;4901866;29;20079;-50
2022/10/24 04:23:56;;;;;;;25.65;13.88;;;;;;;12.24;100.00;98983.25;4904389;29;20036;-50
2022/10/24 04:26:41;;;;;;;22.63;13.73;;;;;;;12.19;100.00;98971.28;4897752;29;20052;-50
2022/10/24 04:29:26;;;;;;;18.83;13.18;;;;;;;12.18;100.00;98980.13;4902192;29;20817;-55
2022/10/24 04:32:11;;;;;;;26.50;14.32;;;;;;;12.16;100.00;98976.75;4902083;29;20405;-47
2022/10/24 04:34:55;;;;;;;26.33;16.55;;;;;;;12.14;100.00;98967.31;4901459;29;20088;-54
2022/10/24 04:37:40;;;;;;;26.60;17.15;;;;;;;12.13;100.00;98976.13;4899357;29;20100;-52
2022/10/24 04:40:27;;;;;;;28.77;17.25;;;;;;;12.12;100.00;98980.56;4885168;29;20445;-49
2022/10/24 04:43:12;;;;;;;29.38;18.00;;;;;;;12.15;100.00;98979.50;4901570;29;20041;-51
2022/10/24 04:45:56;;;;;;;32.40;18.58;;;;;;;12.22;100.00;98990.41;4885230;29;20072;-52
2022/10/24 04:48:41;;;;;;;29.17;17.35;;;;;;;12.34;100.00;98992.13;4902964;29;20075;-57
2022/10/24 04:51:25;;;;;;;28.83;18.00;;;;;;;12.42;100.00;98995.06;4899701;29;20086;-51
2022/10/24 04:54:10;;;;;;;28.20;16.67;;;;;;;12.42;100.00;98987.16;4899111;29;20052;-52
2022/10/24 04:56:55;;;;;;;25.20;14.30;;;;;;;12.41;100.00;98993.38;4901764;29;20583;-50
2022/10/24 04:59:39;;;;;;;22.90;13.88;;;;;;;12.52;100.00;98991.75;4895855;29;20934;-56
2022/10/24 05:02:20;;;;;;;21.92;13.93;;;;;;;12.55;100.00;98987.09;5109369;27;20707;-55
2022/10/24 05:05:05;;;;;;;21.27;12.98;;;;;;;12.23;100.00;98984.19;5085723;28;20438;-53
2022/10/24 05:07:49;;;;;;;20.70;12.98;;;;;;;12.27;100.00;98977.78;5086620;28;20115;-55
2022/10/24 05:10:34;;;;;;;22.88;13.43;;;;;;;12.21;100.00;98981.69;5056866;28;20048;-51
2022/10/24 05:13:19;;;;;;;24.40;14.73;;;;;;;12.09;100.00;98982.56;5059798;28;20045;-57
2022/10/24 05:16:04;;;;;;;26.40;13.82;;;;;;;11.98;100.00;98971.00;5061498;28;20246;-53
2022/10/24 05:18:49;;;;;;;25.02;14.80;;;;;;;11.93;100.00;98978.41;5061144;28;20041;-51
2022/10/24 05:21:33;;;;;;;21.73;14.15;;;;;;;11.88;100.00;98976.06;5060550;28;20125;-51
2022/10/24 05:24:18;;;;;;;24.42;14.00;;;;;;;11.83;100.00;98976.41;5062133;28;20782;-48
2022/10/24 05:27:03;;;;;;;23.27;14.23;;;;;;;11.82;100.00;98971.25;5059871;28;20603;-51
2022/10/24 05:29:47;;;;;;;27.48;15.02;;;;;;;11.92;100.00;98974.91;5060392;28;20094;-52
2022/10/24 05:32:32;;;;;;;26.75;15.55;;;;;;;11.97;100.00;98977.22;5061063;28;20119;-52
2022/10/24 05:35:18;;;;;;;28.92;16.25;;;;;;;12.03;100.00;98973.28;5059286;28;20052;-57
2022/10/24 05:38:03;;;;;;;30.73;15.75;;;;;;;12.06;100.00;98979.19;5059805;28;20059;-50
2022/10/24 05:40:51;;;;;;;33.80;15.95;;;;;;;12.10;100.00;98985.09;5060331;28;20136;-53
2022/10/24 05:43:35;;;;;;;28.48;16.02;;;;;;;12.17;100.00;98991.59;5060171;28;20052;-50
2022/10/24 05:46:20;;;;;;;28.60;15.68;;;;;;;12.17;100.00;98991.59;5059407;28;20045;-52
2022/10/24 05:49:07;;;;;;;30.95;16.65;;;;;;;12.24;100.00;98972.75;5057157;28;20045;-53
2022/10/24 05:51:52;;;;;;;27.75;15.50;;;;;;;12.27;100.00;98985.66;5061051;28;20155;-51
2022/10/24 05:54:36;;;;;;;25.92;15.18;;;;;;;12.32;100.00;98981.75;5059177;28;20071;-57
2022/10/24 05:57:22;;;;;;;31.88;14.82;;;;;;;12.40;100.00;98985.63;5059506;28;20368;-57
2022/10/24 06:00:10;;;;;;;25.17;15.30;;;;;;;12.52;100.00;98991.75;5059691;28;20047;-50
2022/10/24 06:03:00;;;;;;;24.70;15.32;;;;;;;12.63;100.00;98999.69;5059776;28;20498;-51
2022/10/24 06:05:45;;;;;;;23.55;14.05;;;;;;;12.62;100.00;99011.16;5058860;28;20033;-50
2022/10/24 06:08:29;;;;;;;22.75;13.23;;;;;;;12.60;100.00;99020.13;5060485;28;20131;-51
2022/10/24 06:11:14;;;;;;;19.27;11.65;;;;;;;12.62;100.00;99019.03;5058684;28;20072;-52
2022/10/24 06:13:59;;;;;;;24.27;12.70;;;;;;;12.61;100.00;99027.03;5058930;28;20060;-54
2022/10/24 06:16:43;;;;;;;23.15;12.13;;;;;;;12.61;100.00;99029.66;5046403;28;20127;-49
2022/10/24 06:19:28;;;;;;;21.23;12.57;;;;;;;12.65;100.00;99024.06;5044832;28;20438;-51
2022/10/24 06:22:13;;;;;;;24.35;12.43;;;;;;;12.76;100.00;99019.81;5046499;28;20156;-52
2022/10/24 06:24:58;;;;;;;24.73;14.50;;;;;;;12.86;100.00;99018.16;5045262;28;20049;-52
2022/10/24 06:27:43;;;;;;;22.67;14.25;;;;;;;12.85;100.00;99027.03;5046734;28;20686;-52
2022/10/24 06:30:28;;;;;;;26.98;15.30;;;;;;;12.89;100.00;99025.81;5044949;28;20037;-53
2022/10/24 06:33:13;;;;;;;27.13;14.20;;;;;;;13.00;100.00;99026.84;5072960;28;20488;-52
2022/10/24 06:36:03;;;;;;;25.25;14.52;;;;;;;13.04;100.00;99015.97;5047370;28;20090;-56
2022/10/24 06:38:49;;;;;;;23.37;13.43;;;;;;;13.13;100.00;99013.59;5046142;28;20056;-51
2022/10/24 06:41:33;;;;;;;25.70;15.55;;;;;;;13.08;100.00;99024.47;5058774;28;20136;-54
2022/10/24 06:44:19;;;;;;;25.48;12.57;;;;;;;13.06;100.00;99026.38;5043260;28;20388;-52
2022/10/24 06:47:04;;;;;;;23.42;13.52;;;;;;;13.05;100.00;99040.47;5044795;28;20124;-53
2022/10/24 06:49:48;;;;;;;23.55;12.80;;;;;;;12.96;100.00;99041.19;5046502;28;20048;-50
2022/10/24 06:52:33;;;;;;;25.02;13.55;;;;;;;12.94;100.00;99052.63;5046608;28;20041;-52
2022/10/24 06:55:17;;;;;;;25.00;14.05;;;;;;;12.96;100.00;99072.72;5045182;28;20447;-48
2022/10/24 06:58:02;;;;;;;27.20;14.90;;;;;;;12.92;100.00;99070.31;5045666;28;20037;-47
2022/10/24 07:00:46;;;;;;;24.40;14.40;;;;;;;12.89;100.00;99072.34;5045852;28;20326;-50
2022/10/24 07:03:31;;;;;;;26.15;16.00;;;;;;;12.86;100.00;99064.69;5047722;28;20045;-52
2022/10/24 07:06:25;;;;;;;32.28;16.10;;;;;;;12.92;100.00;99059.81;5072672;28;20045;-53
2022/10/24 07:09:11;;;;;;;35.85;19.38;;;;;;;12.74;100.00;99058.53;5044141;28;20127;-48
2022/10/24 07:11:56;;;;;;;53.63;23.33;;;;;;;12.76;100.00;99056.63;5045854;28;20508;-49
2022/10/24 07:14:40;;;;;;;52.42;25.42;;;;;;;12.82;100.00;99066.69;5045996;28;20037;-49
2022/10/24 07:17:25;;;;;;;59.60;25.33;;;;;;;12.86;100.00;99065.50;5045115;28;20199;-49
2022/10/24 07:20:12;;;;;;;65.32;28.85;;;;;;;12.79;100.00;99061.66;5043945;28;20115;-51
2022/10/24 07:22:57;;;;;;;58.67;27.70;;;;;;;12.71;100.00;99054.34;5042490;28;20128;-47
2022/10/24 07:25:42;;;;;;;53.08;24.92;;;;;;;12.75;100.00;99054.94;5040279;28;20167;-49
2022/10/24 07:28:27;;;;;;;48.22;22.65;;;;;;;12.77;100.00;99053.03;5042619;28;20044;-50
2022/10/24 07:31:16;;;;;;;44.63;19.83;;;;;;;12.76;100.00;99057.44;5041953;28;20502;-48
2022/10/24 07:34:03;;;;;;;38.60;19.17;;;;;;;12.85;100.00;99065.59;5043849;28;20049;-51
2022/10/24 07:36:54;;;;;;;35.75;18.88;;;;;;;12.79;100.00;99059.03;5043481;28;20120;-51
2022/10/24 07:39:38;;;;;;;31.17;16.70;;;;;;;12.77;100.00;99060.91;5044252;28;20064;-49
2022/10/24 07:42:23;;;;;;;34.28;18.17;;;;;;;12.76;100.00;99054.00;5043489;28;20044;-51
2022/10/24 07:45:08;;;;;;;37.05;18.05;;;;;;;12.75;100.00;99061.03;5070302;28;20128;-50
2022/10/24 07:47:53;;;;;;;35.38;18.10;;;;;;;12.69;100.00;99070.22;5044753;28;20029;-51
2022/10/24 07:50:43;;;;;;;33.10;17.38;;;;;;;12.69;100.00;99064.97;5044552;28;20056;-53
2022/10/24 07:53:27;;;;;;;34.35;17.50;;;;;;;12.74;100.00;99055.88;5044373;28;20068;-47
2022/10/24 07:56:14;;;;;;;35.30;16.92;;;;;;;12.74;100.00;99046.22;5045136;28;20049;-56
2022/10/24 07:59:00;;;;;;;36.60;17.95;;;;;;;12.69;100.00;99045.72;5043669;28;20048;-48
2022/10/24 08:01:46;;;;;;;36.78;18.25;;;;;;;12.80;100.00;99044.91;5043489;28;20830;-50
2022/10/24 08:08:13;;;;;;;29.95;16.92;;;;;;;13.01;100.00;99049.53;5076068;28;20079;-53
2022/10/24 08:11:44;;;;;;;33.17;17.13;;;;;;;12.94;100.00;99044.75;5064499;28;20491;-54
2022/10/24 08:14:35;;;;;;;31.02;16.25;;;;;;;13.06;100.00;99055.28;4997686;28;20587;-52
2022/10/24 08:17:23;;;;;;;36.30;17.35;;;;;;;13.22;100.00;99062.06;5000936;28;20183;-52
2022/10/24 08:20:11;;;;;;;29.88;16.52;;;;;;;13.23;100.00;99056.69;4974537;28;20054;-50
2022/10/24 08:22:59;;;;;;;32.88;17.33;;;;;;;13.22;100.00;99060.25;5002383;28;20512;-49
2022/10/24 08:25:45;;;;;;;31.60;16.35;;;;;;;13.28;100.00;99069.50;5002400;28;20057;-52
2022/10/24 08:28:44;;;;;;;38.85;16.95;;;;;;;13.39;100.00;99059.00;4992011;28;20049;-54
2022/10/24 08:31:29;;;;;;;37.53;17.83;;;;;;;13.52;100.00;99052.81;5001871;28;20057;-51
2022/10/24 08:34:15;;;;;;;32.28;17.38;;;;;;;13.55;100.00;99055.22;5002144;28;20089;-53
2022/10/24 08:37:00;;;;;;;31.17;16.35;;;;;;;13.53;100.00;99054.50;5000396;28;20073;-50
2022/10/24 08:39:44;;;;;;;42.92;21.23;;;;;;;13.55;100.00;99042.06;5001632;28;20045;-51
2022/10/24 08:42:29;;;;;;;42.47;19.90;;;;;;;13.74;100.00;99030.94;5001008;28;20573;-50
2022/10/24 08:45:34;;;;;;;43.97;20.50;;;;;;;13.56;100.00;99027.94;5000923;28;20501;-51
2022/10/24 08:48:26;;;;;;;53.63;25.48;;;;;;;13.55;100.00;99023.63;5001504;28;20053;-50
2022/10/24 08:51:41;;;;;;;60.10;28.60;;;;;;;13.69;100.00;99027.00;5000478;28;20056;-53
2022/10/24 08:54:33;;;;;;;67.35;28.95;;;;;;;13.91;100.00;99020.88;4986381;28;20133;-49
2022/10/24 08:57:25;;;;;;;78.60;32.33;;;;;;;13.93;100.00;99018.97;5008447;28;20057;-53
2022/10/24 09:00:19;;;;;;;78.75;31.75;;;;;;;13.60;100.00;99024.13;5040723;28;20089;-55
2022/10/24 09:03:14;;;;;;;73.32;31.73;;;;;;;13.59;100.00;99027.72;5042675;28;20041;-51
2022/10/24 09:06:02;;;;;;;88.15;32.92;;;;;;;13.85;100.00;99038.00;5042375;28;20079;-54
2022/10/24 09:09:03;;;;;;;68.93;31.45;;;;;;;14.19;100.00;99025.75;5042929;28;20131;-51
2022/10/24 09:12:16;;;;;;;67.10;30.43;;;;;;;14.47;100.00;99024.41;5043636;28;20453;-50
2022/10/24 09:15:04;;;;;;;65.03;27.85;;;;;;;14.87;100.00;99020.31;5043643;28;20053;-49
2022/10/24 09:17:50;;;;;;;62.40;29.00;;;;;;;15.20;100.00;99022.91;5041300;28;20049;-56
2022/10/24 09:20:34;;;;;;;46.90;22.77;;;;;;;15.34;100.00;99032.28;5044410;28;20057;-50
2022/10/24 09:23:22;;;;;;;59.22;26.95;;;;;;;15.71;100.00;99023.06;5041437;28;20511;-53
2022/10/24 09:26:14;;;;;;;58.47;26.75;;;;;;;15.20;100.00;99022.91;5069955;28;20043;-53
2022/10/24 09:28:59;;;;;;;51.28;24.80;;;;;;;16.90;100.00;99015.38;5041722;28;20404;-53
2022/10/24 09:31:48;;;;;;;49.40;23.88;;;;;;;16.62;100.00;99008.13;5041870;28;20053;-52
2022/10/24 09:34:32;;;;;;;66.30;26.90;;;;;;;17.45;100.00;99007.78;5041763;28;20049;-56
2022/10/24 09:37:43;;;;;;;43.05;22.38;;;;;;;16.95;100.00;98999.91;5042582;28;20094;-56
2022/10/24 09:40:33;;;;;;;43.58;22.00;;;;;;;16.38;100.00;99006.72;5034544;28;20384;-49
2022/10/24 09:43:21;;;;;;;43.42;22.52;;;;;;;17.18;100.00;99015.50;5041593;28;20101;-51
2022/10/24 09:46:09;;;;;;;42.92;20.00;;;;;;;17.79;100.00;99017.81;5040900;28;20055;-52
2022/10/24 09:49:11;;;;;;;41.78;21.98;;;;;;;18.44;96.93;99012.63;5045964;28;20049;-52
2022/10/24 09:52:14;;;;;;;32.50;18.10;;;;;;;18.37;92.54;99017.69;5072399;28;20555;-55
2022/10/24 09:55:19;;;;;;;33.47;17.63;;;;;;;17.38;95.79;99019.94;5071382;28;20045;-55
2022/10/24 09:58:04;;;;;;;37.33;19.13;;;;;;;17.93;95.34;99013.88;5044605;28;20131;-54
2022/10/24 10:00:57;;;;;;;32.60;19.15;;;;;;;17.05;98.38;99010.50;5045396;28;20064;-50
2022/10/24 10:04:04;;;;;;;33.33;19.48;;;;;;;17.18;96.81;99007.56;5045344;28;20045;-53
2022/10/24 10:06:49;;;;;;;32.15;18.20;;;;;;;17.22;97.23;99005.47;5052551;28;20056;-53
2022/10/24 10:09:40;;;;;;;31.70;17.95;;;;;;;17.68;94.13;98997.66;5045584;28;20075;-55
2022/10/24 10:12:31;;;;;;;30.23;16.60;;;;;;;17.23;95.33;99004.50;5045657;28;20061;-53
2022/10/24 10:15:16;;;;;;;28.48;16.45;;;;;;;16.59;97.30;99007.56;5045810;28;20041;-50
2022/10/24 10:18:21;;;;;;;28.92;17.00;;;;;;;16.19;100.00;99006.69;5044700;28;20102;-55
2022/10/24 10:21:15;;;;;;;28.60;15.73;;;;;;;16.58;100.00;99000.63;5044685;28;20132;-53
2022/10/24 10:24:00;;;;;;;33.92;15.95;;;;;;;16.35;99.48;99000.88;5058189;28;20079;-53
2022/10/24 10:26:46;;;;;;;27.83;16.05;;;;;;;16.53;100.00;99002.84;5056219;28;20151;-55
2022/10/24 10:29:31;;;;;;;27.48;15.90;;;;;;;16.84;100.00;99003.53;5045284;28;20480;-52
2022/10/24 10:32:29;;;;;;;30.38;16.23;;;;;;;17.61;100.00;98993.91;5044295;28;20081;-57
2022/10/24 10:35:36;;;;;;;26.05;14.55;;;;;;;17.71;94.87;98993.88;5045372;28;20051;-55
2022/10/24 10:38:43;;;;;;;21.88;13.25;;;;;;;18.00;100.00;99002.69;5045129;28;20547;-51
2022/10/24 10:41:53;;;;;;;20.52;12.82;;;;;;;17.66;95.40;99009.41;5042322;28;20049;-54
2022/10/24 10:45:12;;;;;;;21.75;13.35;;;;;;;17.99;95.02;99004.50;5045753;28;20078;-51
2022/10/24 10:48:21;;;;;;;19.88;12.10;;;;;;;17.25;99.75;99010.47;5055992;28;20510;-53
2022/10/24 10:51:34;;;;;;;18.67;10.73;;;;;;;18.08;96.59;99011.53;5040014;28;20048;-50
2022/10/24 10:54:21;;;;;;;15.90;9.38;;;;;;;18.59;91.80;99023.53;5068894;28;20506;-52
2022/10/24 10:57:12;;;;;;;18.17;9.57;;;;;;;18.99;88.61;99012.59;5042254;28;20484;-50
2022/10/24 11:00:24;;;;;;;17.88;10.95;;;;;;;19.00;88.35;99007.13;5068504;28;20056;-51
2022/10/24 11:03:19;;;;;;;17.92;9.43;;;;;;;18.92;87.39;98996.44;5042105;28;20116;-52
2022/10/24 11:06:18;;;;;;;17.25;9.23;;;;;;;18.91;87.71;98982.38;5043528;28;20056;-58
2022/10/24 11:09:32;;;;;;;15.45;9.45;;;;;;;17.91;93.47;98969.94;5055870;28;20105;-58
2022/10/24 11:12:26;;;;;;;17.92;9.75;;;;;;;17.36;95.40;98972.41;5035489;28;20045;-54
2022/10/24 11:15:23;;;;;;;19.20;10.23;;;;;;;16.77;100.00;98978.63;5071448;28;20052;-52
2022/10/24 11:18:16;;;;;;;16.75;10.20;;;;;;;16.88;99.24;98980.28;5044380;28;20075;-57
2022/10/24 11:21:17;;;;;;;17.88;9.50;;;;;;;16.42;100.00;98961.50;5041743;28;20088;-53
2022/10/24 11:24:17;;;;;;;16.25;9.30;;;;;;;16.76;100.00;98950.50;5040177;28;20630;-59
2022/10/24 11:27:12;;;;;;;13.65;8.02;;;;;;;17.10;100.00;98944.75;5043256;28;20456;-52
2022/10/24 11:30:05;;;;;;;13.45;9.15;;;;;;;17.44;94.67;98948.69;5045264;28;20128;-53
2022/10/24 11:32:57;;;;;;;11.70;7.72;;;;;;;17.02;96.77;98962.28;5022185;28;20037;-52
2022/10/24 11:35:57;;;;;;;13.10;8.30;;;;;;;17.73;92.37;98952.19;5054674;28;20099;-53
2022/10/24 11:39:07;;;;;;;12.52;7.15;;;;;;;17.95;90.86;98971.31;5041751;28;20077;-54
2022/10/24 11:42:05;;;;;;;13.02;7.65;;;;;;;17.65;91.02;98976.75;5055277;28;20041;-59
2022/10/24 11:45:09;;;;;;;12.65;7.57;;;;;;;17.40;92.23;98979.06;5044619;28;20545;-55
2022/10/24 11:48:21;;;;;;;11.07;6.63;;;;;;;17.42;91.95;98961.25;5071856;28;20134;-55
2022/10/24 11:51:13;;;;;;;15.20;9.00;;;;;;;17.28;93.63;98956.41;5043931;28;20451;-55
2022/10/24 11:54:09;;;;;;;13.95;9.10;;;;;;;17.22;94.00;98952.50;5043115;28;20056;-53
2022/10/24 11:57:01;;;;;;;14.50;9.02;;;;;;;18.07;90.23;98940.13;5043261;28;20080;-54
2022/10/24 11:59:45;;;;;;;14.23;10.20;;;;;;;18.50;87.92;98926.31;5043937;28;20463;-53
2022/10/24 12:03:04;;;;;;;15.35;10.90;;;;;;;18.33;87.72;98927.00;5041978;28;20041;-50
2022/10/24 12:05:58;;;;;;;20.33;12.63;;;;;;;18.54;85.78;98920.53;5044272;28;20041;-48
2022/10/24 12:08:49;;;;;;;17.33;9.82;;;;;;;19.05;84.54;98908.44;5040664;28;20056;-52
2022/10/24 12:12:10;;;;;;;15.23;10.25;;;;;;;19.61;81.75;98917.88;5038681;28;20072;-52
2022/10/24 12:15:37;;;;;;;23.27;13.15;;;;;;;20.20;78.58;98906.44;5043944;28;20041;-55
2022/10/24 12:18:45;;;;;;;27.83;15.23;;;;;;;20.56;76.72;98899.97;5040847;28;20441;-59
2022/10/24 12:21:46;;;;;;;27.02;15.70;;;;;;;20.74;76.33;98896.28;5035238;28;20739;-53
2022/10/24 12:24:37;;;;;;;29.55;17.58;;;;;;;20.82;76.14;98888.28;5055091;28;20044;-55
2022/10/24 12:27:34;;;;;;;32.67;19.65;;;;;;;20.44;77.64;98878.19;5042387;28;20468;-49
2022/10/24 12:30:20;;;;;;;31.20;18.65;;;;;;;19.77;81.61;98882.56;5044017;28;20065;-58
2022/10/24 12:33:24;;;;;;;38.05;20.90;;;;;;;19.31;84.12;98884.56;5056952;28;20045;-57
2022/10/24 12:36:09;;;;;;;36.60;19.55;;;;;;;18.83;85.95;98889.44;5041640;28;20095;-58
2022/10/24 12:38:57;;;;;;;37.13;19.20;;;;;;;18.67;87.93;98884.84;5072307;28;20049;-55
2022/10/24 12:41:42;;;;;;;32.05;19.17;;;;;;;18.62;87.80;98872.06;5042843;28;20091;-56
2022/10/24 12:44:33;;;;;;;32.90;18.45;;;;;;;18.36;89.83;98872.81;5048377;28;20043;-56
2022/10/24 12:47:23;;;;;;;25.20;15.13;;;;;;;19.12;86.35;98863.56;5043825;28;20111;-61
2022/10/24 12:50:20;;;;;;;26.92;15.70;;;;;;;18.94;85.92;98865.28;5041553;28;20045;-54
2022/10/24 12:53:29;;;;;;;27.20;15.88;;;;;;;18.83;87.81;98857.59;5044499;28;20057;-55
2022/10/24 12:56:16;;;;;;;25.65;16.48;;;;;;;18.50;88.44;98852.06;5070331;28;20068;-52
2022/10/24 12:59:17;;;;;;;28.10;16.30;;;;;;;18.33;89.84;98847.47;5042217;28;20048;-54